KG-0028 weather

CLOSED Kara Baita Airport
Kara Baita, Chuy Region, Kyrgyzstan

Public forecast

Using degrees Celsius for public forecast. Weather courtesy of forecast.io.

Closest aviation weather report (METAR) to Kara Baita Airport

Closest report is Manas International Airport, 29.5 nm (54.6 km) ENE. Retrieved 2020/02/27 01:30 UTC (17 minutes ago):

UCFM 270130Z 29008MPS 4800 -SHRA BR FEW004 BKN026CB 01/M00 Q1021 R26/2///95 NOSIG

Closest aviation forecast (TAF) to Kara Baita Airport

Closest forecast is Manas International Airport, 29.5 nm (54.6 km) ENE. Retrieved 2020-02-27 00:00 UTC (2 hours ago):

TAF UCFM 262247Z 2700/2724 30003G08MPS 3000 BR BKN005 OVC030CB TEMPO 2700/2706 32010G15MPS 1000 SHRA BKN003 OVC015CB BECMG 2706/2707 1500 BR FU TEMPO 2706/2712 0600 SHRASN FZFG BKN002 OVC015CB